Time;durP1;ratioP1;P1;durP2;ratioP2;P2;SDS_P1;SDS_P2;PMS_P1;PMS_P2;Temp;Humidity;BMP_temperature;BMP_pressure;BME280_temperature;BME280_humidity;BME280_pressure;Samples;Min_cycle;Max_cycle;Signal;HPM_P1;HPM_P2
2023/08/28 00:02:20;;;;;;;1.17;0.98;;;16.90;78.80;;;;;;5016012;28;20060;-72
2023/08/28 00:04:46;;;;;;;1.42;0.98;;;16.90;78.90;;;;;;5019520;28;20030;-72
2023/08/28 00:07:12;;;;;;;2.08;1.25;;;16.80;79.00;;;;;;5013297;28;20053;-72
2023/08/28 00:09:38;;;;;;;2.10;1.00;;;16.80;79.20;;;;;;5009950;28;20036;-75
2023/08/28 00:12:04;;;;;;;2.05;1.17;;;16.80;79.30;;;;;;5018410;28;20037;-75
2023/08/28 00:14:31;;;;;;;1.15;1.05;;;16.70;79.40;;;;;;5014565;28;20030;-75
2023/08/28 00:16:57;;;;;;;1.40;1.30;;;16.70;79.70;;;;;;5014860;28;20033;-75
2023/08/28 00:19:23;;;;;;;1.60;1.30;;;16.70;79.80;;;;;;5017886;28;20453;-75
2023/08/28 00:21:48;;;;;;;2.80;1.67;;;16.70;80.00;;;;;;5012127;28;20077;-75
2023/08/28 00:24:14;;;;;;;2.05;1.42;;;16.70;80.00;;;;;;5015833;28;20359;-75
2023/08/28 00:26:40;;;;;;;2.03;1.30;;;16.70;80.00;;;;;;5007544;28;20037;-75
2023/08/28 00:29:05;;;;;;;1.58;1.23;;;16.70;80.00;;;;;;5016233;28;20041;-75
2023/08/28 00:31:31;;;;;;;2.28;1.50;;;16.70;80.00;;;;;;5016480;28;20057;-75
2023/08/28 00:33:57;;;;;;;1.80;1.27;;;16.70;80.10;;;;;;5016774;28;20482;-75
2023/08/28 00:36:22;;;;;;;1.48;1.15;;;16.60;80.00;;;;;;5025842;28;20481;-72
2023/08/28 00:38:48;;;;;;;1.30;0.82;;;16.60;80.10;;;;;;5002957;28;20056;-72
2023/08/28 00:41:14;;;;;;;1.70;1.05;;;16.60;80.10;;;;;;5015619;28;20184;-72
2023/08/28 00:43:39;;;;;;;2.40;1.20;;;16.60;80.50;;;;;;5024754;28;20029;-75
2023/08/28 00:46:06;;;;;;;1.98;1.70;;;16.60;80.20;;;;;;5017698;28;20033;-75
2023/08/28 00:48:32;;;;;;;2.80;1.50;;;16.60;80.30;;;;;;5012337;28;20533;-75
2023/08/28 00:51:00;;;;;;;2.05;1.73;;;16.60;80.30;;;;;;5016411;28;20030;-75
2023/08/28 00:53:26;;;;;;;1.45;0.82;;;16.60;80.10;;;;;;5015129;28;20475;-75
2023/08/28 00:55:53;;;;;;;1.13;1.05;;;16.60;80.00;;;;;;5032489;28;20124;-75
2023/08/28 00:58:20;;;;;;;1.13;0.90;;;16.50;79.90;;;;;;5014668;28;20038;-75
2023/08/28 01:00:46;;;;;;;2.38;1.48;;;16.50;79.80;;;;;;5019726;28;20053;-75
2023/08/28 01:03:11;;;;;;;2.88;0.77;;;16.50;79.60;;;;;;5019372;28;20091;-75
2023/08/28 01:05:52;;;;;;;1.60;0.90;;;16.50;79.60;;;;;;5014043;28;20038;-75
2023/08/28 01:08:24;;;;;;;1.65;1.38;;;16.40;79.40;;;;;;5030802;28;20029;-75
2023/08/28 01:10:54;;;;;;;;;;;16.40;79.40;;;;;;5021945;28;20022;-75
2023/08/28 01:13:45;;;;;;;1.58;1.10;;;16.30;79.40;;;;;;5014432;28;19909;-75
2023/08/28 01:16:11;;;;;;;1.83;1.10;;;16.30;79.30;;;;;;5011902;28;20061;-75
2023/08/28 01:18:37;;;;;;;1.35;1.00;;;16.20;79.50;;;;;;5018742;28;20061;-75
2023/08/28 01:21:04;;;;;;;2.30;0.80;;;16.20;79.50;;;;;;5018065;28;20460;-75
2023/08/28 01:23:42;;;;;;;1.20;0.93;;;16.10;79.20;;;;;;5014009;28;20116;-75
2023/08/28 01:26:09;;;;;;;1.85;1.23;;;16.20;79.20;;;;;;5018411;28;20022;-75
2023/08/28 01:28:34;;;;;;;1.45;0.98;;;16.10;79.20;;;;;;5018649;28;20044;-75
2023/08/28 01:31:04;;;;;;;1.27;1.10;;;16.10;79.30;;;;;;5032432;28;20112;-75
2023/08/28 01:33:31;;;;;;;1.23;1.00;;;16.00;79.30;;;;;;5019846;28;20499;-75
2023/08/28 01:36:21;;;;;;;1.35;0.95;;;16.00;79.40;;;;;;5016717;28;20037;-75
2023/08/28 01:38:58;;;;;;;1.80;1.10;;;16.00;79.30;;;;;;5011209;28;20030;-75
2023/08/28 01:41:26;;;;;;;1.55;1.33;;;16.00;79.40;;;;;;5020377;28;20034;-72
2023/08/28 01:43:57;;;;;;;3.05;1.23;;;16.00;79.30;;;;;;5020758;28;20109;-71
2023/08/28 01:46:23;;;;;;;0.87;0.87;;;16.00;79.30;;;;;;5010896;28;20100;-72
2023/08/28 01:48:53;;;;;;;1.00;1.00;;;15.90;79.10;;;;;;5014428;28;20269;-72
2023/08/28 01:51:20;;;;;;;1.17;1.08;;;15.90;79.10;;;;;;5012994;28;20489;-72
2023/08/28 01:53:47;;;;;;;0.80;0.75;;;15.90;79.10;;;;;;5014511;28;20531;-72
2023/08/28 01:56:25;;;;;;;1.40;1.10;;;15.90;79.00;;;;;;5016412;28;20503;-75
2023/08/28 01:58:57;;;;;;;1.00;1.00;;;15.80;78.90;;;;;;5018052;28;20030;-75
2023/08/28 02:01:25;;;;;;;1.08;0.98;;;15.80;78.90;;;;;;5024184;28;20036;-75
2023/08/28 02:03:51;;;;;;;1.63;1.10;;;15.70;78.70;;;;;;5029970;28;20037;-75
2023/08/28 02:06:17;;;;;;;1.38;0.85;;;15.80;78.70;;;;;;5014222;28;20103;-75
2023/08/28 02:08:43;;;;;;;1.30;1.00;;;15.80;78.80;;;;;;5011654;28;20029;-75
2023/08/28 02:11:09;;;;;;;1.58;0.90;;;15.70;78.70;;;;;;5018091;28;20029;-72
2023/08/28 02:13:35;;;;;;;1.45;1.10;;;15.70;78.70;;;;;;5027814;28;20060;-72
2023/08/28 02:16:01;;;;;;;1.20;1.05;;;15.70;78.70;;;;;;5010650;28;20041;-72
2023/08/28 02:18:27;;;;;;;3.55;1.05;;;15.70;78.70;;;;;;5025187;28;20540;-74
2023/08/28 02:20:53;;;;;;;2.22;1.05;;;15.60;78.60;;;;;;5019647;28;20510;-75
2023/08/28 02:23:19;;;;;;;0.60;0.60;;;15.60;78.60;;;;;;5026900;28;20049;-75
2023/08/28 02:25:48;;;;;;;1.73;1.00;;;15.60;78.60;;;;;;5018050;28;20025;-75
2023/08/28 02:28:15;;;;;;;5.03;1.50;;;15.60;78.50;;;;;;5009044;28;20041;-75
2023/08/28 02:30:40;;;;;;;1.42;0.98;;;15.60;78.50;;;;;;5011886;28;20026;-75
2023/08/28 02:33:06;;;;;;;1.40;1.15;;;15.60;78.60;;;;;;5012800;28;20026;-75
2023/08/28 02:35:32;;;;;;;0.93;0.80;;;15.50;78.50;;;;;;5010878;28;20420;-75
2023/08/28 02:37:57;;;;;;;1.02;1.00;;;15.50;78.50;;;;;;5006272;28;20026;-75
2023/08/28 02:40:24;;;;;;;1.30;1.00;;;15.50;78.50;;;;;;5009525;28;20038;-75
2023/08/28 02:42:50;;;;;;;5.55;1.35;;;15.50;78.50;;;;;;5010874;28;20033;-75
2023/08/28 02:45:16;;;;;;;1.63;0.88;;;15.50;78.50;;;;;;5010751;28;20386;-75
2023/08/28 02:47:41;;;;;;;1.02;0.88;;;15.40;78.50;;;;;;5010023;28;20022;-75
2023/08/28 02:50:07;;;;;;;1.00;0.90;;;15.40;78.50;;;;;;4995831;28;20581;-75
2023/08/28 02:52:33;;;;;;;1.23;0.85;;;15.40;78.50;;;;;;5015872;28;20448;-75
2023/08/28 02:54:59;;;;;;;1.30;1.10;;;15.40;78.50;;;;;;5012806;28;20516;-75
2023/08/28 02:57:24;;;;;;;0.93;0.80;;;15.40;78.60;;;;;;5009253;28;20109;-75
2023/08/28 02:59:50;;;;;;;1.10;0.85;;;15.30;78.50;;;;;;5015091;28;20049;-75
2023/08/28 03:02:16;;;;;;;1.20;1.02;;;15.30;78.50;;;;;;5011572;28;20025;-75
2023/08/28 03:04:44;;;;;;;3.10;1.08;;;15.30;78.50;;;;;;5012117;28;20482;-75
2023/08/28 03:07:10;;;;;;;1.10;0.80;;;15.30;78.50;;;;;;5012949;28;20042;-75
2023/08/28 03:09:35;;;;;;;1.55;0.90;;;15.20;78.50;;;;;;5012712;28;20038;-75
2023/08/28 03:12:02;;;;;;;1.40;0.88;;;15.20;78.50;;;;;;5008747;28;20390;-75
2023/08/28 03:14:27;;;;;;;1.30;1.05;;;15.10;78.50;;;;;;5009363;28;20045;-75
2023/08/28 03:16:53;;;;;;;1.33;1.23;;;15.20;78.60;;;;;;5011288;28;20433;-75
2023/08/28 03:19:19;;;;;;;0.82;0.77;;;15.10;78.50;;;;;;5017048;28;20449;-75
2023/08/28 03:21:45;;;;;;;0.77;0.77;;;15.20;78.50;;;;;;5009842;28;20088;-75
2023/08/28 03:24:11;;;;;;;1.20;0.63;;;15.10;78.50;;;;;;5010587;28;20477;-75
2023/08/28 03:26:37;;;;;;;2.35;0.95;;;15.10;78.40;;;;;;5012436;28;20060;-71
2023/08/28 03:29:03;;;;;;;1.48;1.08;;;15.10;78.30;;;;;;5004603;28;20071;-71
2023/08/28 03:31:30;;;;;;;1.80;0.77;;;15.10;78.30;;;;;;5029695;28;20083;-72
2023/08/28 03:33:56;;;;;;;2.75;1.48;;;15.10;78.40;;;;;;5008460;28;20031;-72
2023/08/28 03:36:22;;;;;;;1.75;0.95;;;15.00;78.40;;;;;;5009808;28;20038;-71
2023/08/28 03:38:48;;;;;;;1.00;1.00;;;15.00;78.50;;;;;;5004408;28;20029;-71
2023/08/28 03:41:13;;;;;;;0.68;0.68;;;15.00;78.50;;;;;;5004758;28;20053;-75
2023/08/28 03:43:39;;;;;;;4.72;1.15;;;15.00;78.40;;;;;;5006292;28;20052;-75
2023/08/28 03:46:05;;;;;;;1.30;1.20;;;15.00;78.40;;;;;;5014466;28;20064;-75
2023/08/28 03:48:30;;;;;;;1.00;0.68;;;14.90;78.40;;;;;;5004119;28;20084;-75
2023/08/28 03:50:56;;;;;;;1.35;0.93;;;14.90;78.40;;;;;;5016841;28;20109;-75
2023/08/28 03:53:22;;;;;;;1.10;1.00;;;14.90;78.40;;;;;;5010909;28;20045;-75
2023/08/28 03:55:48;;;;;;;1.08;1.02;;;14.80;78.40;;;;;;5010043;28;20037;-75
2023/08/28 03:58:13;;;;;;;1.25;1.00;;;14.90;78.40;;;;;;5014994;28;20037;-75
2023/08/28 04:00:39;;;;;;;0.95;0.63;;;14.80;78.40;;;;;;5010247;28;20056;-75
2023/08/28 04:03:05;;;;;;;0.95;0.82;;;14.80;78.30;;;;;;5008392;28;20375;-75
2023/08/28 04:05:35;;;;;;;1.77;1.48;;;14.80;78.30;;;;;;5008666;28;20527;-75
2023/08/28 04:08:01;;;;;;;1.58;1.45;;;14.80;78.40;;;;;;5016522;28;20026;-75
2023/08/28 04:10:27;;;;;;;1.40;1.02;;;14.80;78.50;;;;;;5018155;28;20163;-75
2023/08/28 04:12:52;;;;;;;0.90;0.70;;;14.80;78.60;;;;;;5018727;28;20022;-75
2023/08/28 04:15:19;;;;;;;1.17;1.02;;;14.80;78.60;;;;;;5012408;28;20038;-75
2023/08/28 04:17:45;;;;;;;1.00;0.98;;;14.80;78.60;;;;;;5010117;28;20165;-75
2023/08/28 04:20:14;;;;;;;1.10;0.88;;;14.70;78.50;;;;;;5014979;28;20511;-75
2023/08/28 04:22:46;;;;;;;1.10;1.00;;;14.70;78.50;;;;;;5013455;28;20044;-75
2023/08/28 04:25:12;;;;;;;;;;;14.70;78.50;;;;;;5008403;28;20067;-75
2023/08/28 04:27:39;;;;;;;1.67;1.08;;;14.70;78.70;;;;;;5014167;28;19959;-71
2023/08/28 04:30:06;;;;;;;1.10;0.95;;;14.70;78.80;;;;;;4990098;28;20117;-75
2023/08/28 04:32:35;;;;;;;2.38;1.20;;;14.70;78.80;;;;;;5006171;28;20379;-74
2023/08/28 04:35:02;;;;;;;1.30;0.88;;;14.80;79.00;;;;;;5007457;28;20045;-75
2023/08/28 04:37:28;;;;;;;1.40;0.85;;;14.80;78.90;;;;;;5004399;28;20026;-75
2023/08/28 04:39:54;;;;;;;1.80;0.98;;;14.80;79.00;;;;;;5009760;28;20490;-75
2023/08/28 04:42:20;;;;;;;1.20;0.88;;;14.90;79.10;;;;;;5010443;28;20030;-75
2023/08/28 04:44:46;;;;;;;0.80;0.80;;;14.90;79.10;;;;;;5009367;28;20062;-72
2023/08/28 04:47:14;;;;;;;1.40;0.95;;;15.00;79.10;;;;;;5009218;28;20026;-72
2023/08/28 04:49:40;;;;;;;1.35;1.17;;;15.00;79.20;;;;;;5010547;28;20034;-71
2023/08/28 04:52:06;;;;;;;1.20;0.95;;;15.00;79.30;;;;;;5017178;28;20044;-72
2023/08/28 04:54:33;;;;;;;1.30;1.05;;;15.10;79.30;;;;;;5012481;28;20038;-72
2023/08/28 04:56:58;;;;;;;2.60;1.10;;;15.10;79.40;;;;;;5007620;28;20033;-72
2023/08/28 04:59:24;;;;;;;2.15;0.90;;;15.10;79.20;;;;;;5016523;28;20508;-71
2023/08/28 05:01:50;;;;;;;1.05;0.95;;;15.20;79.30;;;;;;5010632;28;20036;-72
2023/08/28 05:04:15;;;;;;;1.17;1.02;;;15.20;79.30;;;;;;5028158;28;20037;-72
2023/08/28 05:06:41;;;;;;;3.47;1.48;;;15.20;79.20;;;;;;5006208;28;20065;-72
2023/08/28 05:09:07;;;;;;;1.27;1.17;;;15.20;79.20;;;;;;5015810;28;20029;-72
2023/08/28 05:11:32;;;;;;;1.95;0.80;;;15.20;79.40;;;;;;5027781;28;20562;-71
2023/08/28 05:13:58;;;;;;;3.17;1.02;;;15.20;79.60;;;;;;5010193;28;20444;-72
2023/08/28 05:16:24;;;;;;;2.33;1.17;;;15.20;79.60;;;;;;5013288;28;20149;-72
2023/08/28 05:18:49;;;;;;;1.15;0.88;;;15.20;79.50;;;;;;5011389;28;20022;-72
2023/08/28 05:21:15;;;;;;;1.30;1.00;;;15.20;79.40;;;;;;5032233;28;20429;-72
2023/08/28 05:23:41;;;;;;;0.80;0.70;;;15.20;79.50;;;;;;5017575;28;20034;-72
2023/08/28 05:26:07;;;;;;;1.85;1.13;;;15.20;79.50;;;;;;5010898;28;20079;-72
2023/08/28 05:28:35;;;;;;;2.72;1.08;;;15.20;79.50;;;;;;5011789;28;20041;-71
2023/08/28 05:31:02;;;;;;;1.50;1.10;;;15.20;79.50;;;;;;5019652;28;20075;-74
2023/08/28 05:33:28;;;;;;;3.35;1.23;;;15.20;79.60;;;;;;5015281;28;20040;-71
2023/08/28 05:35:54;;;;;;;2.70;1.67;;;15.20;79.60;;;;;;5012033;28;20026;-74
2023/08/28 05:38:19;;;;;;;2.03;1.20;;;15.20;79.60;;;;;;5008355;28;20084;-72
2023/08/28 05:40:45;;;;;;;1.13;0.98;;;15.30;79.80;;;;;;5012327;28;20516;-72
2023/08/28 05:43:11;;;;;;;2.38;1.33;;;15.30;79.80;;;;;;4994864;28;20041;-72
2023/08/28 05:45:37;;;;;;;1.50;1.00;;;15.40;79.90;;;;;;5016105;28;20416;-72
2023/08/28 05:48:03;;;;;;;2.47;1.23;;;15.40;79.90;;;;;;5010898;28;20065;-72
2023/08/28 05:50:29;;;;;;;2.88;1.50;;;15.40;80.10;;;;;;5012729;28;20034;-73
2023/08/28 05:52:55;;;;;;;3.00;1.83;;;15.50;80.20;;;;;;5015134;28;20037;-72
2023/08/28 05:55:21;;;;;;;2.03;1.45;;;15.50;80.30;;;;;;5015387;28;20026;-72
2023/08/28 05:57:46;;;;;;;1.58;1.13;;;15.60;80.30;;;;;;5003473;28;20026;-71
2023/08/28 06:00:14;;;;;;;3.28;2.22;;;15.70;80.50;;;;;;5013341;28;20485;-74
2023/08/28 06:02:40;;;;;;;4.63;1.70;;;15.80;80.80;;;;;;5016242;28;20038;-74
2023/08/28 06:05:06;;;;;;;2.28;2.08;;;15.80;81.20;;;;;;5008850;28;20026;-72
2023/08/28 06:07:32;;;;;;;1.58;1.40;;;15.90;81.40;;;;;;5018473;28;20046;-72
2023/08/28 06:09:58;;;;;;;2.08;1.30;;;15.90;81.40;;;;;;5016121;28;20429;-72
2023/08/28 06:12:24;;;;;;;1.15;1.02;;;15.90;81.30;;;;;;5018279;28;20038;-74
2023/08/28 06:14:50;;;;;;;2.13;1.83;;;16.00;81.20;;;;;;5018079;28;20036;-74
2023/08/28 06:17:16;;;;;;;2.33;1.48;;;16.10;81.30;;;;;;5020960;28;20389;-72
2023/08/28 06:19:42;;;;;;;1.85;1.50;;;16.20;81.50;;;;;;5010442;28;20265;-74
2023/08/28 06:22:08;;;;;;;1.80;1.30;;;16.20;81.50;;;;;;5030252;28;20035;-72
2023/08/28 06:24:33;;;;;;;2.35;1.50;;;16.30;81.40;;;;;;5022355;28;20053;-71
2023/08/28 06:26:59;;;;;;;2.42;1.88;;;16.40;81.30;;;;;;5022920;28;20444;-72
2023/08/28 06:29:25;;;;;;;2.13;1.40;;;16.50;81.40;;;;;;5015411;28;20026;-72
2023/08/28 06:31:51;;;;;;;2.05;1.85;;;16.50;81.40;;;;;;5017623;28;20385;-72
2023/08/28 06:34:17;;;;;;;2.25;1.73;;;16.50;81.40;;;;;;5019812;28;20425;-72
2023/08/28 06:36:43;;;;;;;1.73;1.40;;;16.60;81.40;;;;;;5007716;28;20027;-71
2023/08/28 06:39:09;;;;;;;2.97;1.70;;;16.70;81.40;;;;;;5011401;28;20026;-72
2023/08/28 06:41:35;;;;;;;4.28;1.50;;;16.80;81.30;;;;;;5015002;28;20056;-72
2023/08/28 06:44:00;;;;;;;2.20;1.63;;;16.80;81.20;;;;;;5015219;28;20119;-72
2023/08/28 06:46:26;;;;;;;1.95;1.75;;;16.90;81.20;;;;;;5010264;28;20026;-72
2023/08/28 06:48:53;;;;;;;2.45;2.25;;;17.00;81.10;;;;;;5013113;28;20060;-72
2023/08/28 06:51:21;;;;;;;3.33;2.45;;;17.10;81.10;;;;;;5014100;28;20038;-72
2023/08/28 06:53:49;;;;;;;3.45;2.58;;;17.10;81.20;;;;;;5009368;28;20162;-72
2023/08/28 06:56:15;;;;;;;2.60;1.58;;;17.10;81.30;;;;;;5013151;28;20048;-71
2023/08/28 06:58:40;;;;;;;2.10;1.77;;;17.10;81.50;;;;;;5026773;28;20033;-72
2023/08/28 07:01:06;;;;;;;2.35;1.67;;;17.20;81.50;;;;;;5005081;28;20042;-71
2023/08/28 07:03:32;;;;;;;2.63;1.70;;;17.40;81.40;;;;;;5008063;28;20034;-72
2023/08/28 07:05:57;;;;;;;1.73;1.40;;;17.50;81.30;;;;;;5014197;28;20030;-72
2023/08/28 07:08:23;;;;;;;1.77;1.30;;;17.60;81.00;;;;;;5002013;28;20386;-74
2023/08/28 07:10:49;;;;;;;2.00;1.70;;;17.70;80.80;;;;;;5000384;28;20033;-71
2023/08/28 07:13:15;;;;;;;1.98;1.58;;;17.90;80.60;;;;;;5002211;28;20049;-74
2023/08/28 07:15:40;;;;;;;2.17;1.42;;;18.00;80.50;;;;;;5008159;28;20084;-75
2023/08/28 07:18:06;;;;;;;1.45;1.30;;;18.10;80.50;;;;;;5007491;28;20496;-74
2023/08/28 07:20:32;;;;;;;2.40;1.75;;;18.30;81.00;;;;;;5000667;28;20095;-76
2023/08/28 07:22:58;;;;;;;1.67;1.30;;;18.40;80.20;;;;;;5010904;28;20084;-75
2023/08/28 07:25:24;;;;;;;1.42;1.20;;;18.40;79.90;;;;;;5005712;28;20474;-74
2023/08/28 07:27:50;;;;;;;2.25;2.05;;;18.50;80.00;;;;;;5010592;28;20160;-72
2023/08/28 07:30:16;;;;;;;1.95;1.30;;;18.50;80.10;;;;;;5009487;28;20061;-71
2023/08/28 07:32:42;;;;;;;1.10;1.00;;;18.60;80.10;;;;;;4989431;28;20092;-71
2023/08/28 07:35:08;;;;;;;3.67;2.28;;;18.60;80.00;;;;;;4991389;28;20033;-76
2023/08/28 07:37:35;;;;;;;2.20;1.92;;;18.70;80.10;;;;;;4999082;28;20041;-74
2023/08/28 07:40:01;;;;;;;3.10;1.63;;;18.80;80.00;;;;;;5008888;28;20129;-76
2023/08/28 07:42:26;;;;;;;2.22;1.48;;;18.90;79.80;;;;;;5028878;28;20672;-74
2023/08/28 07:44:52;;;;;;;10.07;1.90;;;19.00;79.80;;;;;;5006036;28;20086;-72
2023/08/28 07:47:18;;;;;;;1.98;1.50;;;19.10;79.50;;;;;;5009960;28;20058;-76
2023/08/28 07:49:44;;;;;;;1.85;1.48;;;19.20;79.40;;;;;;4989978;28;20493;-72
2023/08/28 07:52:10;;;;;;;3.00;2.58;;;19.20;79.30;;;;;;5009157;28;20037;-72
2023/08/28 07:54:36;;;;;;;4.55;2.63;;;19.10;79.20;;;;;;5012779;28;20069;-74
2023/08/28 07:57:06;;;;;;;3.17;1.92;;;19.10;79.40;;;;;;4993457;28;20969;-74
2023/08/28 07:59:32;;;;;;;5.70;2.25;;;19.10;79.40;;;;;;5011951;28;20658;-74
2023/08/28 08:01:57;;;;;;;4.63;2.45;;;19.00;79.30;;;;;;5013194;28;20041;-71
2023/08/28 08:04:27;;;;;;;2.03;1.63;;;19.00;79.70;;;;;;5025633;28;20053;-74
2023/08/28 08:06:53;;;;;;;5.03;3.13;;;19.00;79.70;;;;;;5013008;28;20123;-74
2023/08/28 08:09:19;;;;;;;3.70;2.50;;;19.10;79.60;;;;;;5013918;28;20500;-74
2023/08/28 08:11:45;;;;;;;2.20;1.83;;;19.10;79.30;;;;;;4988890;28;20608;-73
2023/08/28 08:14:10;;;;;;;4.18;1.98;;;19.10;79.30;;;;;;5004600;28;20017;-73
2023/08/28 08:16:45;;;;;;;2.78;1.50;;;19.10;79.10;;;;;;5019802;28;20121;-73
2023/08/28 08:19:11;;;;;;;4.95;1.90;;;19.30;79.00;;;;;;4981413;28;20034;-73
2023/08/28 08:21:36;;;;;;;2.80;1.15;;;19.20;78.50;;;;;;5015570;28;20083;-73
2023/08/28 08:24:03;;;;;;;1.80;1.40;;;19.30;78.60;;;;;;5011531;28;20117;-75
2023/08/28 08:26:28;;;;;;;1.30;1.20;;;19.50;78.60;;;;;;5007152;28;20029;-75
2023/08/28 08:28:54;;;;;;;6.63;2.17;;;19.60;78.40;;;;;;5024558;28;20026;-75
2023/08/28 08:31:20;;;;;;;2.05;0.95;;;19.80;77.80;;;;;;5011131;28;20377;-73
2023/08/28 08:33:46;;;;;;;1.25;0.60;;;20.00;77.50;;;;;;5012921;28;20034;-73
2023/08/28 08:36:14;;;;;;;0.68;0.65;;;20.10;77.20;;;;;;5013763;28;20111;-76
2023/08/28 08:38:40;;;;;;;1.05;0.77;;;20.20;76.80;;;;;;5009506;28;20775;-76
2023/08/28 08:41:07;;;;;;;1.13;1.00;;;20.30;76.60;;;;;;5028175;28;20038;-76
2023/08/28 08:43:34;;;;;;;1.13;1.00;;;20.20;76.50;;;;;;5016430;28;20038;-73
2023/08/28 08:46:06;;;;;;;0.65;0.65;;;20.00;76.60;;;;;;5009225;28;20417;-73
2023/08/28 08:48:38;;;;;;;;;;;19.90;76.80;;;;;;5017434;28;20034;-73
2023/08/28 08:51:05;;;;;;;;;;;19.80;77.10;;;;;;5028240;28;19917;-73
2023/08/28 08:54:08;;;;;;;0.95;0.60;;;19.70;76.00;;;;;;5017299;28;19959;-73
2023/08/28 08:56:36;;;;;;;0.93;0.50;;;19.70;76.40;;;;;;5015100;28;20080;-73
2023/08/28 08:59:03;;;;;;;0.50;0.50;;;19.80;76.30;;;;;;5017673;28;20025;-74
2023/08/28 09:01:30;;;;;;;0.55;0.55;;;20.10;75.60;;;;;;5015780;28;20510;-70
2023/08/28 09:03:58;;;;;;;0.57;0.57;;;20.30;74.90;;;;;;5012293;28;20064;-73
2023/08/28 09:06:26;;;;;;;0.85;0.70;;;20.50;74.60;;;;;;5016100;28;20486;-74
2023/08/28 09:08:51;;;;;;;0.65;0.65;;;20.70;73.60;;;;;;5013434;28;20057;-73
2023/08/28 09:11:17;;;;;;;0.63;0.63;;;20.90;72.20;;;;;;5009570;28;20245;-74
2023/08/28 09:13:43;;;;;;;1.13;0.80;;;20.80;71.50;;;;;;5004022;28;20084;-73
2023/08/28 09:16:09;;;;;;;0.55;0.50;;;20.70;72.00;;;;;;5010032;28;20565;-73
2023/08/28 09:18:35;;;;;;;0.55;0.55;;;20.70;72.30;;;;;;5017020;28;20105;-73
2023/08/28 09:21:08;;;;;;;0.55;0.52;;;20.60;72.50;;;;;;5013998;28;20116;-76
2023/08/28 09:23:34;;;;;;;0.50;0.50;;;20.60;73.10;;;;;;5011351;28;20052;-76
2023/08/28 09:26:02;;;;;;;0.95;0.90;;;20.60;73.30;;;;;;5010160;28;20034;-76
2023/08/28 09:28:28;;;;;;;0.57;0.57;;;20.90;72.80;;;;;;5013900;28;20108;-76
2023/08/28 09:30:54;;;;;;;0.38;0.38;;;21.00;72.40;;;;;;5007355;28;20121;-76
2023/08/28 09:33:20;;;;;;;0.95;0.60;;;21.20;71.70;;;;;;5011267;28;20499;-76
2023/08/28 09:35:45;;;;;;;0.65;0.45;;;21.50;71.40;;;;;;5007064;28;20049;-76
2023/08/28 09:38:14;;;;;;;0.65;0.50;;;21.70;71.10;;;;;;5027113;28;20042;-76
2023/08/28 09:40:41;;;;;;;0.40;0.40;;;21.90;69.70;;;;;;5009986;28;20026;-71
2023/08/28 09:43:12;;;;;;;0.45;0.40;;;22.10;69.70;;;;;;5012660;28;20030;-71
2023/08/28 09:45:38;;;;;;;0.50;0.50;;;22.40;69.40;;;;;;5014887;28;20049;-71
2023/08/28 09:48:04;;;;;;;0.50;0.50;;;22.50;68.20;;;;;;5029708;28;20033;-71
2023/08/28 09:50:31;;;;;;;1.23;0.40;;;22.50;68.10;;;;;;5011082;28;20042;-71
2023/08/28 09:53:11;;;;;;;0.30;0.30;;;22.30;67.90;;;;;;5006152;28;20022;-73
2023/08/28 09:55:50;;;;;;;0.50;0.50;;;22.00;68.40;;;;;;5009348;28;20053;-74
2023/08/28 09:58:17;;;;;;;0.80;0.60;;;21.80;68.40;;;;;;5009660;28;20022;-73
2023/08/28 10:00:43;;;;;;;0.30;0.30;;;21.70;68.70;;;;;;5010184;28;20036;-73
2023/08/28 10:03:10;;;;;;;0.30;0.30;;;21.50;68.60;;;;;;5008320;28;20030;-74
2023/08/28 10:05:41;;;;;;;0.30;0.30;;;21.60;69.00;;;;;;5013311;28;20037;-71
2023/08/28 10:08:09;;;;;;;0.40;0.40;;;21.90;68.60;;;;;;5014106;28;20048;-71
2023/08/28 10:10:35;;;;;;;0.88;0.52;;;22.20;67.50;;;;;;5024899;28;20492;-71
2023/08/28 10:13:05;;;;;;;0.43;0.43;;;22.50;65.40;;;;;;5012171;28;20188;-70
2023/08/28 10:15:40;;;;;;;0.45;0.40;;;22.60;64.80;;;;;;5013916;28;20084;-73
2023/08/28 10:18:14;;;;;;;0.47;0.47;;;22.70;63.00;;;;;;5011909;28;20457;-73
2023/08/28 10:20:42;;;;;;;0.43;0.40;;;22.80;63.30;;;;;;5007193;28;20088;-73
2023/08/28 10:23:10;;;;;;;1.10;0.50;;;23.00;62.90;;;;;;5009777;28;20088;-74
2023/08/28 10:25:42;;;;;;;0.40;0.40;;;23.10;61.40;;;;;;5006342;28;20041;-74
2023/08/28 10:28:08;;;;;;;0.68;0.32;;;23.20;61.80;;;;;;5007052;28;20508;-73
2023/08/28 10:30:38;;;;;;;0.60;0.60;;;23.40;62.20;;;;;;5016312;28;20029;-73
2023/08/28 10:33:06;;;;;;;0.52;0.50;;;23.50;61.50;;;;;;5011394;28;20084;-74
2023/08/28 10:35:32;;;;;;;0.40;0.40;;;23.70;59.60;;;;;;5013984;28;20495;-71
2023/08/28 10:37:59;;;;;;;0.40;0.40;;;23.70;60.10;;;;;;5007256;28;20060;-74
2023/08/28 10:40:25;;;;;;;0.50;0.50;;;23.70;60.50;;;;;;5017788;28;20033;-74
2023/08/28 10:42:54;;;;;;;0.50;0.50;;;23.80;60.80;;;;;;5010728;28;20455;-74
2023/08/28 10:45:20;;;;;;;0.88;0.65;;;23.90;60.80;;;;;;5002819;28;20415;-74
2023/08/28 10:47:50;;;;;;;0.57;0.57;;;24.00;58.10;;;;;;5009840;28;20060;-72
2023/08/28 10:50:15;;;;;;;0.43;0.40;;;24.10;58.80;;;;;;5009010;28;20508;-74
2023/08/28 10:52:41;;;;;;;0.47;0.35;;;24.20;58.10;;;;;;5012692;28;20041;-71
2023/08/28 10:55:09;;;;;;;0.50;0.30;;;24.20;56.20;;;;;;5010312;28;20102;-72
2023/08/28 10:57:40;;;;;;;0.40;0.40;;;24.30;56.40;;;;;;5005197;28;20034;-71
2023/08/28 11:00:16;;;;;;;0.57;0.52;;;24.20;56.00;;;;;;5010004;28;20041;-71
2023/08/28 11:03:06;;;;;;;0.45;0.45;;;24.20;55.80;;;;;;5011949;28;20018;-71
2023/08/28 11:05:33;;;;;;;0.50;0.50;;;24.40;55.70;;;;;;5010608;28;20473;-72
2023/08/28 11:08:06;;;;;;;0.30;0.30;;;24.50;56.50;;;;;;4989956;28;20033;-72
2023/08/28 11:10:33;;;;;;;0.50;0.50;;;24.70;57.00;;;;;;5014786;28;20056;-71
2023/08/28 11:13:05;;;;;;;0.40;0.40;;;24.80;56.40;;;;;;5011475;28;20092;-71
2023/08/28 11:15:49;;;;;;;;;;;24.90;55.70;;;;;;5027276;28;20037;-71
2023/08/28 11:18:24;;;;;;;0.35;0.35;;;25.10;55.90;;;;;;5006479;28;19917;-71
2023/08/28 11:21:08;;;;;;;0.47;0.47;;;25.00;55.70;;;;;;5007535;28;20038;-72
2023/08/28 11:23:39;;;;;;;0.45;0.45;;;24.70;55.90;;;;;;4995925;28;20049;-71
2023/08/28 11:26:17;;;;;;;1.35;0.75;;;24.60;55.90;;;;;;5010637;28;20018;-71
2023/08/28 11:28:45;;;;;;;0.30;0.30;;;24.70;56.50;;;;;;5013431;28;20399;-71
2023/08/28 11:31:12;;;;;;;0.45;0.45;;;25.10;56.20;;;;;;5010656;28;20121;-71
2023/08/28 11:33:51;;;;;;;0.40;0.40;;;25.40;55.20;;;;;;5008251;28;20461;-71
2023/08/28 11:36:18;;;;;;;0.52;0.40;;;25.60;55.10;;;;;;5026905;28;20113;-71
2023/08/28 11:38:47;;;;;;;0.40;0.40;;;25.60;54.70;;;;;;5009504;28;20079;-74
2023/08/28 11:41:14;;;;;;;0.60;0.40;;;25.40;54.90;;;;;;5004047;28;20025;-74
2023/08/28 11:43:41;;;;;;;0.40;0.40;;;25.10;55.00;;;;;;5004049;28;20034;-74
2023/08/28 11:46:08;;;;;;;0.40;0.40;;;25.00;55.40;;;;;;5006691;28;20026;-74
2023/08/28 11:48:36;;;;;;;0.43;0.43;;;25.10;55.40;;;;;;5008041;28;20037;-71
2023/08/28 11:51:03;;;;;;;0.52;0.40;;;25.10;55.20;;;;;;5012703;28;20022;-71
2023/08/28 11:53:42;;;;;;;0.43;0.43;;;25.30;55.30;;;;;;5007344;28;20045;-71
2023/08/28 11:56:12;;;;;;;0.40;0.40;;;25.40;54.80;;;;;;5005580;28;20030;-71
2023/08/28 11:58:40;;;;;;;0.50;0.50;;;25.40;54.20;;;;;;5005703;28;20029;-71
2023/08/28 12:01:12;;;;;;;0.95;0.30;;;25.50;54.20;;;;;;4990639;28;20108;-71
2023/08/28 12:03:39;;;;;;;0.40;0.40;;;25.40;53.50;;;;;;5007600;28;20061;-71
2023/08/28 12:06:09;;;;;;;0.40;0.40;;;25.20;54.10;;;;;;5010189;28;20520;-71
2023/08/28 12:08:37;;;;;;;0.30;0.30;;;25.40;53.90;;;;;;5010993;28;20172;-71
2023/08/28 12:11:29;;;;;;;0.30;0.30;;;25.60;54.20;;;;;;5000667;28;20099;-71
2023/08/28 12:13:55;;;;;;;0.82;0.68;;;25.90;54.00;;;;;;5021246;28;20493;-71
2023/08/28 12:16:30;;;;;;;0.30;0.30;;;26.00;53.50;;;;;;5008906;28;20113;-71
2023/08/28 12:18:55;;;;;;;0.40;0.32;;;26.20;52.80;;;;;;5018951;28;20077;-74
2023/08/28 12:21:47;;;;;;;0.30;0.30;;;26.20;52.80;;;;;;5010016;28;20037;-74
2023/08/28 12:24:13;;;;;;;0.50;0.50;;;26.20;52.60;;;;;;5009266;28;20092;-74
2023/08/28 12:26:45;;;;;;;0.40;0.40;;;26.20;52.60;;;;;;5021246;28;20505;-74
2023/08/28 12:29:11;;;;;;;0.68;0.50;;;25.90;51.40;;;;;;5005994;28;20099;-74
2023/08/28 12:31:37;;;;;;;0.65;0.57;;;25.80;51.90;;;;;;5011677;28;20469;-74
2023/08/28 12:34:11;;;;;;;0.52;0.50;;;25.60;52.10;;;;;;5005081;28;20058;-73
2023/08/28 12:36:39;;;;;;;0.55;0.55;;;25.40;51.50;;;;;;5006385;28;20038;-74
2023/08/28 12:39:06;;;;;;;0.30;0.30;;;25.10;51.80;;;;;;5029941;28;20026;-74
2023/08/28 12:41:36;;;;;;;0.40;0.40;;;24.90;51.90;;;;;;5025333;28;20034;-74
2023/08/28 12:44:05;;;;;;;0.40;0.40;;;25.20;52.40;;;;;;5002832;28;20026;-73
2023/08/28 12:46:31;;;;;;;0.63;0.45;;;25.50;52.50;;;;;;5008811;28;20029;-74
2023/08/28 12:48:57;;;;;;;0.40;0.40;;;25.60;52.60;;;;;;5011445;28;20461;-74
2023/08/28 12:51:22;;;;;;;0.63;0.40;;;25.80;53.10;;;;;;5003487;28;20092;-74